sensor_id;sensor_type;location;lat;lon;timestamp;pressure;altitude;pressure_sealevel;temperature;humidity
5296;BME280;2670;42.720;23.336;2023-01-13T00:01:27;-22523.03;;;2.80;100.00
5296;BME280;2670;42.720;23.336;2023-01-13T00:03:55;-22524.97;;;2.87;100.00
5296;BME280;2670;42.720;23.336;2023-01-13T00:06:23;-22525.09;;;2.87;100.00
5296;BME280;2670;42.720;23.336;2023-01-13T00:08:51;-22526.00;;;2.90;100.00
5296;BME280;2670;42.720;23.336;2023-01-13T00:11:19;-22527.94;;;2.97;100.00
5296;BME280;2670;42.720;23.336;2023-01-13T00:13:48;-22529.13;;;3.01;100.00
5296;BME280;2670;42.720;23.336;2023-01-13T00:16:16;-22526.91;;;2.93;100.00
5296;BME280;2670;42.720;23.336;2023-01-13T00:18:44;-22524.22;;;2.84;100.00
5296;BME280;2670;42.720;23.336;2023-01-13T00:21:12;-22527.94;;;2.97;100.00
5296;BME280;2670;42.720;23.336;2023-01-13T00:23:40;-22528.53;;;2.99;100.00
5296;BME280;2670;42.720;23.336;2023-01-13T00:26:09;-22530.19;;;3.05;100.00
5296;BME280;2670;42.720;23.336;2023-01-13T00:28:37;-22527.50;;;2.95;100.00
5296;BME280;2670;42.720;23.336;2023-01-13T00:31:06;-22527.50;;;2.95;100.00
5296;BME280;2670;42.720;23.336;2023-01-13T00:33:33;-22526.00;;;2.90;100.00
5296;BME280;2670;42.720;23.336;2023-01-13T00:36:00;-22526.91;;;2.93;100.00
5296;BME280;2670;42.720;23.336;2023-01-13T00:38:29;-22525.25;;;2.88;100.00
5296;BME280;2670;42.720;23.336;2023-01-13T00:40:56;-22524.38;;;2.85;100.00
5296;BME280;2670;42.720;23.336;2023-01-13T00:43:23;-22524.38;;;2.85;100.00
5296;BME280;2670;42.720;23.336;2023-01-13T00:45:49;-22527.06;;;2.94;100.00
5296;BME280;2670;42.720;23.336;2023-01-13T00:48:19;-22526.31;;;2.91;100.00
5296;BME280;2670;42.720;23.336;2023-01-13T00:50:46;-22526.91;;;2.93;100.00
5296;BME280;2670;42.720;23.336;2023-01-13T00:53:12;-22525.84;;;2.90;100.00
5296;BME280;2670;42.720;23.336;2023-01-13T00:55:41;-22527.94;;;2.97;100.00
5296;BME280;2670;42.720;23.336;2023-01-13T00:58:08;-22529.44;;;3.02;100.00
5296;BME280;2670;42.720;23.336;2023-01-13T01:00:34;-22526.75;;;2.93;100.00
5296;BME280;2670;42.720;23.336;2023-01-13T01:03:01;-22526.44;;;2.92;100.00
5296;BME280;2670;42.720;23.336;2023-01-13T01:05:32;-22529.59;;;3.03;100.00
5296;BME280;2670;42.720;23.336;2023-01-13T01:07:58;-22525.41;;;2.88;100.00
5296;BME280;2670;42.720;23.336;2023-01-13T01:10:25;-22526.75;;;2.93;100.00
5296;BME280;2670;42.720;23.336;2023-01-13T01:12:52;-22526.59;;;2.92;100.00
5296;BME280;2670;42.720;23.336;2023-01-13T01:15:18;-22524.66;;;2.86;100.00
5296;BME280;2670;42.720;23.336;2023-01-13T01:17:45;-22527.34;;;2.95;100.00
5296;BME280;2670;42.720;23.336;2023-01-13T01:20:12;-22525.56;;;2.89;100.00
5296;BME280;2670;42.720;23.336;2023-01-13T01:22:40;-22525.72;;;2.89;100.00
5296;BME280;2670;42.720;23.336;2023-01-13T01:25:07;-22527.19;;;2.94;100.00
5296;BME280;2670;42.720;23.336;2023-01-13T01:27:34;-22527.78;;;2.96;100.00
5296;BME280;2670;42.720;23.336;2023-01-13T01:30:01;-22527.94;;;2.97;100.00
5296;BME280;2670;42.720;23.336;2023-01-13T01:32:28;-22526.75;;;2.93;100.00
5296;BME280;2670;42.720;23.336;2023-01-13T01:34:54;-22524.22;;;2.84;100.00
5296;BME280;2670;42.720;23.336;2023-01-13T01:37:21;-22530.94;;;3.07;100.00
5296;BME280;2670;42.720;23.336;2023-01-13T01:39:49;-22528.38;;;2.98;100.00
5296;BME280;2670;42.720;23.336;2023-01-13T01:42:16;-22528.09;;;2.97;100.00
5296;BME280;2670;42.720;23.336;2023-01-13T01:45:10;-22526.44;;;2.92;100.00
5296;BME280;2670;42.720;23.336;2023-01-13T01:47:39;-22529.28;;;3.02;100.00
5296;BME280;2670;42.720;23.336;2023-01-13T01:50:07;-22525.41;;;2.88;100.00
5296;BME280;2670;42.720;23.336;2023-01-13T01:52:36;-22522.88;;;2.80;100.00
5296;BME280;2670;42.720;23.336;2023-01-13T01:55:09;-22526.31;;;2.91;100.00
5296;BME280;2670;42.720;23.336;2023-01-13T01:57:42;-22527.50;;;2.95;100.00
5296;BME280;2670;42.720;23.336;2023-01-13T02:00:10;-22520.94;;;2.73;100.00
5296;BME280;2670;42.720;23.336;2023-01-13T02:02:37;-22526.44;;;2.92;100.00
5296;BME280;2670;42.720;23.336;2023-01-13T02:05:06;-22524.81;;;2.86;100.00
5296;BME280;2670;42.720;23.336;2023-01-13T02:07:33;-22524.66;;;2.86;100.00
5296;BME280;2670;42.720;23.336;2023-01-13T02:10:05;-22524.97;;;2.87;100.00
5296;BME280;2670;42.720;23.336;2023-01-13T02:12:35;-22527.34;;;2.95;100.00
5296;BME280;2670;42.720;23.336;2023-01-13T02:15:05;-22522.41;;;2.78;100.00
5296;BME280;2670;42.720;23.336;2023-01-13T02:17:44;-22522.56;;;2.79;100.00
5296;BME280;2670;42.720;23.336;2023-01-13T02:20:43;-22525.41;;;2.88;100.00
5296;BME280;2670;42.720;23.336;2023-01-13T02:29:45;-22525.09;;;2.87;100.00
5296;BME280;2670;42.720;23.336;2023-01-13T02:32:36;-22521.81;;;2.76;100.00
5296;BME280;2670;42.720;23.336;2023-01-13T02:35:09;-22521.22;;;2.74;100.00
5296;BME280;2670;42.720;23.336;2023-01-13T02:37:41;-22521.53;;;2.75;100.00
5296;BME280;2670;42.720;23.336;2023-01-13T02:40:11;-22521.66;;;2.75;100.00
5296;BME280;2670;42.720;23.336;2023-01-13T02:42:46;-22521.53;;;2.75;100.00
5296;BME280;2670;42.720;23.336;2023-01-13T02:45:34;-22522.56;;;2.79;100.00
5296;BME280;2670;42.720;23.336;2023-01-13T02:48:04;-22521.97;;;2.77;100.00
5296;BME280;2670;42.720;23.336;2023-01-13T02:50:36;-22520.31;;;2.71;100.00
5296;BME280;2670;42.720;23.336;2023-01-13T02:53:07;-22524.50;;;2.85;100.00
5296;BME280;2670;42.720;23.336;2023-01-13T02:55:38;-22522.72;;;2.79;100.00
5296;BME280;2670;42.720;23.336;2023-01-13T02:58:08;-22524.50;;;2.85;100.00
5296;BME280;2670;42.720;23.336;2023-01-13T03:00:39;-22525.56;;;2.89;100.00
5296;BME280;2670;42.720;23.336;2023-01-13T03:03:06;-22522.88;;;2.80;100.00
5296;BME280;2670;42.720;23.336;2023-01-13T03:05:33;-22520.31;;;2.71;100.00
5296;BME280;2670;42.720;23.336;2023-01-13T03:08:10;-22523.31;;;2.81;100.00
5296;BME280;2670;42.720;23.336;2023-01-13T03:10:50;-22524.97;;;2.87;100.00
5296;BME280;2670;42.720;23.336;2023-01-13T03:13:35;-22521.53;;;2.75;100.00
5296;BME280;2670;42.720;23.336;2023-01-13T03:16:12;-22523.63;;;2.82;100.00
5296;BME280;2670;42.720;23.336;2023-01-13T03:18:44;-22523.47;;;2.82;100.00
5296;BME280;2670;42.720;23.336;2023-01-13T03:21:20;-22521.53;;;2.75;100.00
5296;BME280;2670;42.720;23.336;2023-01-13T03:23:50;-22518.97;;;2.66;100.00
5296;BME280;2670;42.720;23.336;2023-01-13T03:26:23;-22521.06;;;2.73;100.00
5296;BME280;2670;42.720;23.336;2023-01-13T03:28:56;-22524.22;;;2.84;100.00
5296;BME280;2670;42.720;23.336;2023-01-13T03:31:30;-22523.91;;;2.83;100.00
5296;BME280;2670;42.720;23.336;2023-01-13T03:34:03;-22523.16;;;2.81;100.00
5296;BME280;2670;42.720;23.336;2023-01-13T03:36:35;-22525.41;;;2.88;100.00
5296;BME280;2670;42.720;23.336;2023-01-13T03:39:07;-22522.28;;;2.78;100.00
5296;BME280;2670;42.720;23.336;2023-01-13T03:41:39;-22525.41;;;2.88;100.00
5296;BME280;2670;42.720;23.336;2023-01-13T03:44:11;-22524.06;;;2.84;100.00
5296;BME280;2670;42.720;23.336;2023-01-13T03:46:58;-22526.59;;;2.92;100.00
5296;BME280;2670;42.720;23.336;2023-01-13T03:49:30;-22525.09;;;2.87;100.00
5296;BME280;2670;42.720;23.336;2023-01-13T03:52:02;-22523.63;;;2.82;100.00
5296;BME280;2670;42.720;23.336;2023-01-13T03:54:32;-22525.09;;;2.87;100.00
5296;BME280;2670;42.720;23.336;2023-01-13T03:57:04;-22524.38;;;2.85;100.00
5296;BME280;2670;42.720;23.336;2023-01-13T03:59:37;-22524.97;;;2.87;100.00
5296;BME280;2670;42.720;23.336;2023-01-13T04:02:11;-22523.75;;;2.83;100.00
5296;BME280;2670;42.720;23.336;2023-01-13T04:04:42;-22524.38;;;2.85;100.00
5296;BME280;2670;42.720;23.336;2023-01-13T04:07:22;-22524.97;;;2.87;100.00
5296;BME280;2670;42.720;23.336;2023-01-13T04:09:54;-22527.19;;;2.94;100.00
5296;BME280;2670;42.720;23.336;2023-01-13T04:12:25;-22524.97;;;2.87;100.00
5296;BME280;2670;42.720;23.336;2023-01-13T04:15:14;-22520.47;;;2.71;100.00
5296;BME280;2670;42.720;23.336;2023-01-13T04:17:42;-22524.38;;;2.85;100.00
5296;BME280;2670;42.720;23.336;2023-01-13T04:20:10;-22520.47;;;2.71;100.00
5296;BME280;2670;42.720;23.336;2023-01-13T04:22:36;-22521.38;;;2.74;100.00
5296;BME280;2670;42.720;23.336;2023-01-13T04:25:04;-22523.03;;;2.80;100.00
5296;BME280;2670;42.720;23.336;2023-01-13T04:27:31;-22526.44;;;2.92;100.00
5296;BME280;2670;42.720;23.336;2023-01-13T04:29:57;-22524.66;;;2.86;100.00
5296;BME280;2670;42.720;23.336;2023-01-13T04:32:24;-22523.16;;;2.81;100.00
5296;BME280;2670;42.720;23.336;2023-01-13T04:34:52;-22526.31;;;2.91;100.00
5296;BME280;2670;42.720;23.336;2023-01-13T04:37:19;-22525.56;;;2.89;100.00
5296;BME280;2670;42.720;23.336;2023-01-13T04:39:46;-22528.09;;;2.97;100.00
5296;BME280;2670;42.720;23.336;2023-01-13T04:42:12;-22528.25;;;2.98;100.00
5296;BME280;2670;42.720;23.336;2023-01-13T04:44:39;-22526.59;;;2.92;100.00
5296;BME280;2670;42.720;23.336;2023-01-13T04:47:06;-22527.34;;;2.95;100.00
5296;BME280;2670;42.720;23.336;2023-01-13T04:49:33;-22526.16;;;2.91;100.00
5296;BME280;2670;42.720;23.336;2023-01-13T04:52:01;-22526.00;;;2.90;100.00
5296;BME280;2670;42.720;23.336;2023-01-13T04:54:28;-22523.03;;;2.80;100.00
5296;BME280;2670;42.720;23.336;2023-01-13T04:56:55;-22526.31;;;2.91;100.00
5296;BME280;2670;42.720;23.336;2023-01-13T04:59:21;-22526.16;;;2.91;100.00
5296;BME280;2670;42.720;23.336;2023-01-13T05:01:48;-22524.97;;;2.87;100.00
5296;BME280;2670;42.720;23.336;2023-01-13T05:04:15;-22526.31;;;2.91;100.00
5296;BME280;2670;42.720;23.336;2023-01-13T05:06:42;-22526.91;;;2.93;100.00
5296;BME280;2670;42.720;23.336;2023-01-13T05:09:10;-22526.59;;;2.92;100.00
5296;BME280;2670;42.720;23.336;2023-01-13T05:11:37;-22525.09;;;2.87;100.00
5296;BME280;2670;42.720;23.336;2023-01-13T05:14:22;-22526.44;;;2.92;100.00
5296;BME280;2670;42.720;23.336;2023-01-13T05:17:08;-22525.25;;;2.88;100.00
5296;BME280;2670;42.720;23.336;2023-01-13T05:19:36;-22523.16;;;2.81;100.00
5296;BME280;2670;42.720;23.336;2023-01-13T05:22:05;-22526.59;;;2.92;100.00
5296;BME280;2670;42.720;23.336;2023-01-13T05:24:51;-22529.59;;;3.03;100.00
5296;BME280;2670;42.720;23.336;2023-01-13T05:27:35;-22527.66;;;2.96;100.00
5296;BME280;2670;42.720;23.336;2023-01-13T05:30:02;-22528.09;;;2.97;100.00
5296;BME280;2670;42.720;23.336;2023-01-13T05:32:29;-22529.88;;;3.04;100.00
5296;BME280;2670;42.720;23.336;2023-01-13T05:34:56;-22529.72;;;3.03;100.00
5296;BME280;2670;42.720;23.336;2023-01-13T05:37:23;-22530.94;;;3.07;100.00
5296;BME280;2670;42.720;23.336;2023-01-13T05:39:52;-22527.94;;;2.97;100.00
5296;BME280;2670;42.720;23.336;2023-01-13T05:42:37;-22529.88;;;3.04;100.00
5296;BME280;2670;42.720;23.336;2023-01-13T05:45:21;-22527.66;;;2.96;100.00
5296;BME280;2670;42.720;23.336;2023-01-13T05:47:48;-22526.75;;;2.93;100.00
5296;BME280;2670;42.720;23.336;2023-01-13T05:50:15;-22525.09;;;2.87;100.00
5296;BME280;2670;42.720;23.336;2023-01-13T05:52:42;-22526.31;;;2.91;100.00
5296;BME280;2670;42.720;23.336;2023-01-13T05:55:10;-22525.84;;;2.90;100.00
5296;BME280;2670;42.720;23.336;2023-01-13T05:57:37;-22527.19;;;2.94;100.00
5296;BME280;2670;42.720;23.336;2023-01-13T06:00:05;-22526.59;;;2.92;100.00
5296;BME280;2670;42.720;23.336;2023-01-13T06:02:31;-22530.78;;;3.07;100.00
5296;BME280;2670;42.720;23.336;2023-01-13T06:04:58;-22527.66;;;2.96;100.00
5296;BME280;2670;42.720;23.336;2023-01-13T06:07:25;-22525.41;;;2.88;100.00
5296;BME280;2670;42.720;23.336;2023-01-13T06:09:51;-22527.66;;;2.96;100.00
5296;BME280;2670;42.720;23.336;2023-01-13T06:12:19;-22528.84;;;3.00;100.00
5296;BME280;2670;42.720;23.336;2023-01-13T06:14:46;-22524.66;;;2.86;100.00
5296;BME280;2670;42.720;23.336;2023-01-13T06:17:14;-22524.22;;;2.84;100.00
5296;BME280;2670;42.720;23.336;2023-01-13T06:19:41;-22524.81;;;2.86;100.00
5296;BME280;2670;42.720;23.336;2023-01-13T06:22:12;-22526.59;;;2.92;100.00
5296;BME280;2670;42.720;23.336;2023-01-13T06:24:41;-22528.09;;;2.97;100.00
5296;BME280;2670;42.720;23.336;2023-01-13T06:27:08;-22527.94;;;2.97;100.00
5296;BME280;2670;42.720;23.336;2023-01-13T06:29:36;-22526.75;;;2.93;100.00
5296;BME280;2670;42.720;23.336;2023-01-13T06:32:06;-22529.13;;;3.01;100.00
5296;BME280;2670;42.720;23.336;2023-01-13T06:34:37;-22530.63;;;3.06;100.00
5296;BME280;2670;42.720;23.336;2023-01-13T06:37:05;-22531.97;;;3.11;100.00
5296;BME280;2670;42.720;23.336;2023-01-13T06:39:33;-22531.81;;;3.10;100.00
5296;BME280;2670;42.720;23.336;2023-01-13T06:42:02;-22532.13;;;3.11;100.00
5296;BME280;2670;42.720;23.336;2023-01-13T06:44:48;-22529.13;;;3.01;100.00
5296;BME280;2670;42.720;23.336;2023-01-13T06:47:15;-22529.59;;;3.03;100.00
5296;BME280;2670;42.720;23.336;2023-01-13T06:49:42;-22527.19;;;2.94;100.00
5296;BME280;2670;42.720;23.336;2023-01-13T06:52:09;-22530.94;;;3.07;100.00
5296;BME280;2670;42.720;23.336;2023-01-13T06:54:35;-22528.09;;;2.97;100.00
5296;BME280;2670;42.720;23.336;2023-01-13T06:57:02;-22528.09;;;2.97;100.00
5296;BME280;2670;42.720;23.336;2023-01-13T06:59:29;-22526.59;;;2.92;100.00
5296;BME280;2670;42.720;23.336;2023-01-13T07:02:00;-22529.44;;;3.02;100.00
5296;BME280;2670;42.720;23.336;2023-01-13T07:04:26;-22530.34;;;3.05;100.00
5296;BME280;2670;42.720;23.336;2023-01-13T07:06:53;-22530.34;;;3.05;100.00
5296;BME280;2670;42.720;23.336;2023-01-13T07:09:20;-22529.88;;;3.04;100.00
5296;BME280;2670;42.720;23.336;2023-01-13T07:11:46;-22531.53;;;3.09;100.00
5296;BME280;2670;42.720;23.336;2023-01-13T07:14:13;-22531.81;;;3.10;100.00
5296;BME280;2670;42.720;23.336;2023-01-13T07:16:57;-22532.72;;;3.13;100.00
5296;BME280;2670;42.720;23.336;2023-01-13T07:19:25;-22535.41;;;3.22;100.00
5296;BME280;2670;42.720;23.336;2023-01-13T07:21:52;-22535.09;;;3.21;100.00
5296;BME280;2670;42.720;23.336;2023-01-13T07:24:19;-22536.59;;;3.27;100.00
5296;BME280;2670;42.720;23.336;2023-01-13T07:26:47;-22535.84;;;3.24;100.00
5296;BME280;2670;42.720;23.336;2023-01-13T07:29:13;-22538.69;;;3.34;100.00
5296;BME280;2670;42.720;23.336;2023-01-13T07:31:40;-22536.00;;;3.24;100.00
5296;BME280;2670;42.720;23.336;2023-01-13T07:34:07;-22538.84;;;3.34;100.00
5296;BME280;2670;42.720;23.336;2023-01-13T07:36:35;-22535.84;;;3.24;100.00
5296;BME280;2670;42.720;23.336;2023-01-13T07:39:02;-22541.97;;;3.45;100.00
5296;BME280;2670;42.720;23.336;2023-01-13T07:41:29;-22544.50;;;3.54;100.00
5296;BME280;2670;42.720;23.336;2023-01-13T07:44:13;-22546.75;;;3.61;100.00
5296;BME280;2670;42.720;23.336;2023-01-13T07:46:40;-22546.47;;;3.60;100.00
5296;BME280;2670;42.720;23.336;2023-01-13T07:49:07;-22549.75;;;3.71;100.00
5296;BME280;2670;42.720;23.336;2023-01-13T07:51:36;-22550.47;;;3.74;100.00
5296;BME280;2670;42.720;23.336;2023-01-13T07:54:04;-22550.47;;;3.74;100.00
5296;BME280;2670;42.720;23.336;2023-01-13T07:56:31;-22552.44;;;3.81;100.00
5296;BME280;2670;42.720;23.336;2023-01-13T07:58:58;-22553.03;;;3.83;100.00
5296;BME280;2670;42.720;23.336;2023-01-13T08:01:25;-22554.81;;;3.89;100.00
5296;BME280;2670;42.720;23.336;2023-01-13T08:03:53;-22556.75;;;3.95;100.00
5296;BME280;2670;42.720;23.336;2023-01-13T08:06:20;-22554.50;;;3.88;100.00
5296;BME280;2670;42.720;23.336;2023-01-13T08:08:48;-22555.84;;;3.92;100.00
5296;BME280;2670;42.720;23.336;2023-01-13T08:11:15;-22559.00;;;4.03;100.00
5296;BME280;2670;42.720;23.336;2023-01-13T08:13:42;-22557.34;;;3.97;100.00
5296;BME280;2670;42.720;23.336;2023-01-13T08:16:11;-22558.84;;;4.03;100.00
5296;BME280;2670;42.720;23.336;2023-01-13T08:18:39;-22559.88;;;4.06;100.00
5296;BME280;2670;42.720;23.336;2023-01-13T08:21:07;-22563.47;;;4.18;100.00
5296;BME280;2670;42.720;23.336;2023-01-13T08:23:35;-22564.06;;;4.20;100.00
5296;BME280;2670;42.720;23.336;2023-01-13T08:26:06;-22565.84;;;4.27;100.00
5296;BME280;2670;42.720;23.336;2023-01-13T08:28:33;-22564.66;;;4.22;100.00
5296;BME280;2670;42.720;23.336;2023-01-13T08:31:00;-22565.56;;;4.25;100.00
5296;BME280;2670;42.720;23.336;2023-01-13T08:33:28;-22566.00;;;4.27;100.00
5296;BME280;2670;42.720;23.336;2023-01-13T08:35:55;-22567.94;;;4.34;100.00
5296;BME280;2670;42.720;23.336;2023-01-13T08:38:22;-22568.97;;;4.37;100.00
5296;BME280;2670;42.720;23.336;2023-01-13T08:40:49;-22566.16;;;4.28;100.00
5296;BME280;2670;42.720;23.336;2023-01-13T08:43:17;-22569.59;;;4.39;100.00
5296;BME280;2670;42.720;23.336;2023-01-13T08:45:44;-22568.38;;;4.35;100.00
5296;BME280;2670;42.720;23.336;2023-01-13T08:48:10;-22574.06;;;4.55;100.00
5296;BME280;2670;42.720;23.336;2023-01-13T08:50:37;-22574.94;;;4.58;100.00
5296;BME280;2670;42.720;23.336;2023-01-13T08:53:04;-22572.84;;;4.50;100.00
5296;BME280;2670;42.720;23.336;2023-01-13T08:55:30;-22574.34;;;4.56;100.00
5296;BME280;2670;42.720;23.336;2023-01-13T08:57:57;-22577.94;;;4.68;100.00
5296;BME280;2670;42.720;23.336;2023-01-13T09:00:25;-22578.97;;;4.71;100.00
5296;BME280;2670;42.720;23.336;2023-01-13T09:02:52;-22580.00;;;4.75;100.00
5296;BME280;2670;42.720;23.336;2023-01-13T09:05:19;-22582.25;;;4.83;100.00
5296;BME280;2670;42.720;23.336;2023-01-13T09:07:45;-22582.84;;;4.85;100.00
5296;BME280;2670;42.720;23.336;2023-01-13T09:10:12;-22581.66;;;4.81;100.00
5296;BME280;2670;42.720;23.336;2023-01-13T09:12:39;-22582.84;;;4.85;100.00
5296;BME280;2670;42.720;23.336;2023-01-13T09:15:23;-22583.00;;;4.85;100.00
5296;BME280;2670;42.720;23.336;2023-01-13T09:17:51;-22585.38;;;4.93;100.00
5296;BME280;2670;42.720;23.336;2023-01-13T09:20:17;-22582.69;;;4.84;100.00
5296;BME280;2670;42.720;23.336;2023-01-13T09:22:44;-22584.78;;;4.91;100.00
5296;BME280;2670;42.720;23.336;2023-01-13T09:25:11;-22586.56;;;4.97;100.00
5296;BME280;2670;42.720;23.336;2023-01-13T09:27:38;-22588.66;;;5.05;100.00
5296;BME280;2670;42.720;23.336;2023-01-13T09:30:05;-22590.00;;;5.09;100.00
5296;BME280;2670;42.720;23.336;2023-01-13T09:32:32;-22590.00;;;5.09;100.00
5296;BME280;2670;42.720;23.336;2023-01-13T09:35:00;-22590.00;;;5.09;100.00
5296;BME280;2670;42.720;23.336;2023-01-13T09:37:28;-22588.97;;;5.06;100.00
5296;BME280;2670;42.720;23.336;2023-01-13T09:39:55;-22586.88;;;4.98;100.00
5296;BME280;2670;42.720;23.336;2023-01-13T09:42:27;-22591.19;;;5.13;100.00
5296;BME280;2670;42.720;23.336;2023-01-13T09:45:16;-22588.66;;;5.05;100.00
5296;BME280;2670;42.720;23.336;2023-01-13T09:47:48;-22590.00;;;5.09;100.00
5296;BME280;2670;42.720;23.336;2023-01-13T09:50:36;-22591.03;;;5.13;100.00
5296;BME280;2670;42.720;23.336;2023-01-13T09:53:11;-22593.28;;;5.20;100.00
5296;BME280;2670;42.720;23.336;2023-01-13T09:55:40;-22590.44;;;5.11;100.00
5296;BME280;2670;42.720;23.336;2023-01-13T09:58:12;-22593.44;;;5.21;100.00
5296;BME280;2670;42.720;23.336;2023-01-13T10:00:44;-22589.56;;;5.08;100.00
5296;BME280;2670;42.720;23.336;2023-01-13T10:03:19;-22590.00;;;5.09;100.00
5296;BME280;2670;42.720;23.336;2023-01-13T10:05:52;-22589.41;;;5.07;100.00
5296;BME280;2670;42.720;23.336;2023-01-13T10:08:23;-22596.25;;;5.31;100.00
5296;BME280;2670;42.720;23.336;2023-01-13T10:10:55;-22598.03;;;5.37;100.00
5296;BME280;2670;42.720;23.336;2023-01-13T10:13:24;-22598.34;;;5.38;100.00
5296;BME280;2670;42.720;23.336;2023-01-13T10:16:14;-22598.63;;;5.39;100.00
5296;BME280;2670;42.720;23.336;2023-01-13T10:18:51;-22601.03;;;5.47;100.00
5296;BME280;2670;42.720;23.336;2023-01-13T10:21:40;-22604.31;;;5.58;100.00
5296;BME280;2670;42.720;23.336;2023-01-13T10:24:17;-22605.94;;;5.64;100.00
5296;BME280;2670;42.720;23.336;2023-01-13T10:26:53;-22602.53;;;5.52;100.00
5296;BME280;2670;42.720;23.336;2023-01-13T10:29:26;-22606.53;;;5.66;100.00
5296;BME280;2670;42.720;23.336;2023-01-13T10:31:53;-22602.22;;;5.51;100.00
5296;BME280;2670;42.720;23.336;2023-01-13T10:34:20;-22603.13;;;5.54;100.00
5296;BME280;2670;42.720;23.336;2023-01-13T10:36:58;-22608.91;;;5.74;100.00
5296;BME280;2670;42.720;23.336;2023-01-13T10:39:26;-22609.22;;;5.75;100.00
5296;BME280;2670;42.720;23.336;2023-01-13T10:42:01;-22614.13;;;5.92;100.00
5296;BME280;2670;42.720;23.336;2023-01-13T10:44:28;-22609.97;;;5.78;100.00
5296;BME280;2670;42.720;23.336;2023-01-13T10:46:57;-22615.03;;;5.95;100.00
5296;BME280;2670;42.720;23.336;2023-01-13T10:49:30;-22615.63;;;5.97;100.00
5296;BME280;2670;42.720;23.336;2023-01-13T10:52:00;-22613.84;;;5.91;100.00
5296;BME280;2670;42.720;23.336;2023-01-13T10:54:28;-22614.13;;;5.92;100.00
5296;BME280;2670;42.720;23.336;2023-01-13T10:57:18;-22615.78;;;5.97;100.00
5296;BME280;2670;42.720;23.336;2023-01-13T10:59:45;-22615.63;;;5.97;100.00
5296;BME280;2670;42.720;23.336;2023-01-13T11:02:18;-22611.91;;;5.84;100.00
5296;BME280;2670;42.720;23.336;2023-01-13T11:04:58;-22618.47;;;6.07;100.00
5296;BME280;2670;42.720;23.336;2023-01-13T11:07:31;-22616.53;;;6.00;100.00
5296;BME280;2670;42.720;23.336;2023-01-13T11:10:09;-22621.72;;;6.18;100.00
5296;BME280;2670;42.720;23.336;2023-01-13T11:12:44;-22614.28;;;5.92;100.00
5296;BME280;2670;42.720;23.336;2023-01-13T11:15:17;-22617.41;;;6.03;100.00
5296;BME280;2670;42.720;23.336;2023-01-13T11:17:48;-22619.34;;;6.10;100.00
5296;BME280;2670;42.720;23.336;2023-01-13T11:20:27;-22622.47;;;6.20;100.00
5296;BME280;2670;42.720;23.336;2023-01-13T11:23:00;-22621.44;;;6.17;100.00
5296;BME280;2670;42.720;23.336;2023-01-13T11:25:31;-22619.50;;;6.10;100.00
5296;BME280;2670;42.720;23.336;2023-01-13T11:28:17;-22624.41;;;6.27;100.00
5296;BME280;2670;42.720;23.336;2023-01-13T11:30:53;-22626.19;;;6.33;100.00
5296;BME280;2670;42.720;23.336;2023-01-13T11:33:29;-22626.63;;;6.35;100.00
5296;BME280;2670;42.720;23.336;2023-01-13T11:36:05;-22624.09;;;6.26;100.00
5296;BME280;2670;42.720;23.336;2023-01-13T11:38:42;-22618.31;;;6.06;100.00
5296;BME280;2670;42.720;23.336;2023-01-13T11:41:19;-22619.06;;;6.09;100.00
5296;BME280;2670;42.720;23.336;2023-01-13T11:43:51;-22619.94;;;6.12;100.00
5296;BME280;2670;42.720;23.336;2023-01-13T11:46:22;-22615.94;;;5.98;100.00
5296;BME280;2670;42.720;23.336;2023-01-13T11:48:51;-22616.53;;;6.00;100.00
5296;BME280;2670;42.720;23.336;2023-01-13T11:51:28;-22615.19;;;5.95;100.00
5296;BME280;2670;42.720;23.336;2023-01-13T11:57:04;-22617.56;;;6.04;100.00
5296;BME280;2670;42.720;23.336;2023-01-13T11:59:47;-22610.72;;;5.80;100.00
5296;BME280;2670;42.720;23.336;2023-01-13T12:02:28;-22615.63;;;5.97;100.00
5296;BME280;2670;42.720;23.336;2023-01-13T12:05:09;-22615.94;;;5.98;100.00
5296;BME280;2670;42.720;23.336;2023-01-13T12:07:47;-22618.31;;;6.06;100.00
5296;BME280;2670;42.720;23.336;2023-01-13T12:10:27;-22622.91;;;6.22;100.00
5296;BME280;2670;42.720;23.336;2023-01-13T12:13:05;-22622.31;;;6.20;100.00
5296;BME280;2670;42.720;23.336;2023-01-13T12:18:58;-22622.63;;;6.21;100.00
5296;BME280;2670;42.720;23.336;2023-01-13T12:21:33;-22622.47;;;6.20;100.00
5296;BME280;2670;42.720;23.336;2023-01-13T12:24:10;-22624.09;;;6.26;100.00
5296;BME280;2670;42.720;23.336;2023-01-13T12:26:43;-22619.19;;;6.09;100.00
5296;BME280;2670;42.720;23.336;2023-01-13T12:29:13;-22620.38;;;6.13;100.00
5296;BME280;2670;42.720;23.336;2023-01-13T12:31:44;-22625.59;;;6.31;100.00
5296;BME280;2670;42.720;23.336;2023-01-13T12:34:25;-22627.69;;;6.38;100.00
5296;BME280;2670;42.720;23.336;2023-01-13T12:36:59;-22626.63;;;6.35;100.00
5296;BME280;2670;42.720;23.336;2023-01-13T12:39:39;-22626.78;;;6.35;100.00
5296;BME280;2670;42.720;23.336;2023-01-13T12:42:17;-22624.41;;;6.27;100.00
5296;BME280;2670;42.720;23.336;2023-01-13T12:45:21;-22621.59;;;6.17;100.00
5296;BME280;2670;42.720;23.336;2023-01-13T12:47:48;-22625.31;;;6.30;100.00
5296;BME280;2670;42.720;23.336;2023-01-13T12:50:41;-22625.91;;;6.32;100.00
5296;BME280;2670;42.720;23.336;2023-01-13T12:53:30;-22625.75;;;6.32;100.00
5296;BME280;2670;42.720;23.336;2023-01-13T12:59:33;-22626.63;;;6.35;100.00
5296;BME280;2670;42.720;23.336;2023-01-13T13:02:28;-22623.97;;;6.26;100.00
5296;BME280;2670;42.720;23.336;2023-01-13T13:04:56;-22628.28;;;6.40;100.00
5296;BME280;2670;42.720;23.336;2023-01-13T13:07:35;-22630.22;;;6.47;100.00
5296;BME280;2670;42.720;23.336;2023-01-13T13:10:15;-22628.28;;;6.40;100.00
5296;BME280;2670;42.720;23.336;2023-01-13T13:12:57;-22627.53;;;6.38;100.00
5296;BME280;2670;42.720;23.336;2023-01-13T13:15:44;-22628.88;;;6.42;100.00
5296;BME280;2670;42.720;23.336;2023-01-13T13:18:25;-22628.28;;;6.40;100.00
5296;BME280;2670;42.720;23.336;2023-01-13T13:21:04;-22627.84;;;6.39;100.00
5296;BME280;2670;42.720;23.336;2023-01-13T13:23:38;-22625.31;;;6.30;100.00
5296;BME280;2670;42.720;23.336;2023-01-13T13:26:18;-22627.25;;;6.37;100.00
5296;BME280;2670;42.720;23.336;2023-01-13T13:28:54;-22628.56;;;6.41;100.00
5296;BME280;2670;42.720;23.336;2023-01-13T13:31:49;-22626.34;;;6.34;100.00
5296;BME280;2670;42.720;23.336;2023-01-13T13:34:25;-22624.25;;;6.27;100.00
5296;BME280;2670;42.720;23.336;2023-01-13T13:37:05;-22624.09;;;6.26;100.00
5296;BME280;2670;42.720;23.336;2023-01-13T13:39:35;-22619.94;;;6.12;100.00